Flight Track Log - Related Links

Times and Time Zones

All times are in EDT time to prevent confusion due to time zone crossing. See the N913CS flight status page for this flight to view local times or setup timezone preferences in your user account.

Time Position Orientation Groundspeed Altitude Reporting Facility
EDT Latitude Longitude Course Direction KTS MPH feet Rate Location/Type
Fri 11:37:41 AM 41.8708 -91.7633 159° South 176 203 3,700  Level Chicago Center
Fri 11:38:43 AM 41.8350 -91.8219 231° Southwest 221 254 5,900 3,000 Climbing Chicago Center
Fri 11:39:45 AM 41.7450 -91.7922 166° South 288 331 9,900 3,194 Climbing Chicago Center
Fri 11:40:47 AM 41.6728 -91.7086 139° Southeast 340 391 12,500 2,177 Climbing Chicago Center
Fri 11:41:49 AM 41.5936 -91.6192 140° Southeast 370 426 14,400 1,839 Climbing Chicago Center
Fri 11:42:51 AM 41.5072 -91.5233 140° Southeast 403 464 16,300 1,935 Climbing Chicago Center
Fri 11:43:00 AM 41.4203 -91.2185 159° South  Level FlightAware Approximate
Fri 11:43:53 AM 41.4178 -91.4231 140° Southeast 420 483 18,400  Level Chicago Center
Fri 11:44:55 AM 41.3197 -91.3147 140° Southeast 434 499 20,600 2,081 Climbing Chicago Center
Fri 11:45:57 AM 41.2272 -91.2117 140° Southeast 434 499 22,700 1,161 Climbing Chicago Center
Fri 11:46:59 AM 41.1131 -91.0861 140° Southeast 445 512 23,000 145 Climbing Chicago Center
Fri 11:48:01 AM 41.0164 -90.9800 140° Southeast 451 519 23,000  Level Chicago Center
Fri 11:49:03 AM 40.9178 -90.8719 140° Southeast 459 528 23,000 97 Level Chicago Center
Fri 11:50:05 AM 40.8217 -90.7672 140° Southeast 451 519 23,200 774 Climbing Chicago Center
Fri 11:51:07 AM 40.7261 -90.6644 141° Southeast 446 513 24,600 1,306 Climbing Chicago Center
Fri 11:52:09 AM 40.6308 -90.5606 140° Southeast 447 514 25,900 1,220 Climbing Chicago Center
Fri 11:53:10 AM 40.5136 -90.4333 140° Southeast 456 525 27,100 1,122 Climbing Chicago Center
Fri 11:54:12 AM 40.4136 -90.3267 141° Southeast 464 534 28,200 1,065 Climbing Chicago Center
Fri 11:55:14 AM 40.3139 -90.2211 141° Southeast 466 536 29,300 1,230 Climbing Chicago Center
Fri 11:56:14 AM 40.2139 -90.1147 141° Southeast 463 533 30,700 1,328 Climbing Kansas City Center
Fri 11:57:16 AM 40.1158 -90.0103 141° Southeast 463 533 32,000 629 Climbing Kansas City Center
Fri 11:58:18 AM 40.0164 -89.9050 141° Southeast 462 532 32,000 242 Level Kansas City Center
Fri 11:59:20 AM 39.8947 -89.7783 141° Southeast 463 533 32,500 484 Climbing Kansas City Center
Fri 12:00:22 PM 39.7931 -89.6717 141° Southeast 466 536 33,000 242 Climbing Kansas City Center
Fri 12:01:24 PM 39.6889 -89.5619 141° Southeast 466 536 33,000  Level Kansas City Center
Fri 12:02:26 PM 39.5867 -89.4567 142° Southeast 467 537 33,000 97 Level Kansas City Center
Fri 12:03:28 PM 39.4864 -89.3522 141° Southeast 466 536 33,200 435 Climbing Kansas City Center
Fri 12:04:30 PM 39.3856 -89.2481 141° Southeast 466 536 33,900 816 Climbing Kansas City Center
Fri 12:05:33 PM 39.2847 -89.1458 142° Southeast 463 533 34,900 528 Climbing Kansas City Center
Fri 12:06:35 PM 39.1633 -89.0214 142° Southeast 463 533 35,000 48 Climbing Kansas City Center
Fri 12:07:37 PM 39.0631 -88.9203 142° Southeast 461 531 35,000  Level Kansas City Center
Fri 12:08:39 PM 38.9667 -88.8200 141° Southeast 451 519 35,000  Level Kansas City Center
Fri 12:09:41 PM 38.8675 -88.7192 142° Southeast 451 519 35,000  Level Kansas City Center
Fri 12:10:43 PM 38.7572 -88.6078 142° Southeast 454 522 35,000  Level Kansas City Center
Fri 12:11:45 PM 38.6550 -88.5067 142° Southeast 459 528 35,000  Level Kansas City Center
Fri 12:12:47 PM 38.5536 -88.4056 142° Southeast 459 528 35,000  Level Kansas City Center
Fri 12:13:49 PM 38.4508 -88.3053 143° Southeast 460 529 35,000  Level Kansas City Center
Fri 12:14:51 PM 38.3503 -88.2053 142° Southeast 460 529 35,000 -89 Level Kansas City Center
Fri 12:16:04 PM 38.2122 -88.0678 142° Southeast 456 525 34,800 -578 Descending Indianapolis Center
Fri 12:17:06 PM 38.1125 -87.9717 143° Southeast 454 522 33,700 -1,306 Descending Indianapolis Center
Fri 12:18:08 PM 38.0097 -87.8714 142° Southeast 460 529 32,100 -1,512 Descending Indianapolis Center
Fri 12:19:09 PM 37.9078 -87.7719 142° Southeast 462 532 30,600 -1,610 Descending Indianapolis Center
Fri 12:20:11 PM 37.8075 -87.6747 143° Southeast 461 531 28,800 -1,742 Descending Indianapolis Center
Fri 12:21:13 PM 37.7103 -87.5808 143° Southeast 453 521 27,000 -2,049 Descending Indianapolis Center
Fri 12:22:14 PM 37.5875 -87.4622 143° Southeast 465 535 24,600 -1,951 Descending Indianapolis Center
Fri 12:23:16 PM 37.4878 -87.3650 142° Southeast 458 527 23,000 -1,258 Descending Indianapolis Center
Fri 12:24:18 PM 37.3914 -87.2733 143° Southeast 438 504 22,000 -1,210 Descending Indianapolis Center
Fri 12:25:20 PM 37.2789 -87.2375 166° South 418 481 20,500 -1,500 Descending Indianapolis Center
Fri 12:26:22 PM 37.1714 -87.2108 169° South 395 455 18,900 -1,965 Descending Indianapolis Center
Fri 12:27:13 PM 37.0850 -87.1867 167° South 384 442 16,800 -2,684 Descending Memphis Center
Fri 12:28:16 PM 36.9836 -87.1600 168° South 373 429 13,800 -2,592 Descending Memphis Center
Fri 12:29:18 PM 36.8856 -87.1347 168° South 363 418 11,400 -1,355 Descending Memphis Center
Fri 12:30:20 PM 36.7853 -87.0797 156° South 341 392 11,000 -194 Descending Memphis Center
Fri 12:31:22 PM 36.7031 -87.0275 153° Southeast 334 384 11,000  Level Memphis Center
Fri 12:32:24 PM 36.6186 -86.9764 154° Southeast 333 383 11,000 -387 Level Memphis Center
Fri 12:33:26 PM 36.5389 -86.9019 143° Southeast 352 405 10,200 -1,500 Descending Memphis Center
Fri 12:34:28 PM 36.4742 -86.8253 136° Southeast 325 374 7,900 -2,129 Descending Memphis Center
Fri 12:35:30 PM 36.4156 -86.7564 137° Southeast 290 334 5,800 -1,790 Descending Memphis Center
Fri 12:36:32 PM 36.3594 -86.6983 140° Southeast 262 302 4,200 -1,306 Descending Memphis Center
Fri 12:37:34 PM 36.2978 -86.6658 157° South 240 276 3,100 -581 Descending Memphis Center
Fri 12:38:36 PM 36.2417 -86.6603 175° South 205 236 3,000 -435 Descending Memphis Center
Fri 12:39:38 PM 36.1931 -86.6594 179° South 180 207 2,200 -919 Descending Memphis Center
Fri 12:40:40 PM 36.1417 -86.6722 191° South 164 189 1,100 -677 Descending Memphis Center
Fri 12:41:42 PM 36.1125 -86.6850 199° South 152 175 800 -290 Descending Memphis Center
Fri 12:43:00 PM 36.1167 -86.6667 39° Northeast  Level FlightAware Approximate

Login

Don't have an account? Register now (free) for customized features, flight alerts, and more!